Time;durP1;ratioP1;P1;durP2;ratioP2;P2;SDS_P1;SDS_P2;PMS_P1;PMS_P2;Temp;Humidity;BMP_temperature;BMP_pressure;BME280_temperature;BME280_humidity;BME280_pressure;Samples;Min_cycle;Max_cycle;Signal;HPM_P1;HPM_P2
2023/09/21 00:01:11;;;;;;;10.35;6.60;;;18.80;99.90;;;;;;5090933;28;20517;-70
2023/09/21 00:03:38;;;;;;;;;;;18.70;99.90;;;;;;5091172;28;20028;-71
2023/09/21 00:06:05;;;;;;;8.18;6.63;;;18.70;99.90;;;;;;5091180;28;20389;-70
2023/09/21 00:08:31;;;;;;;7.88;6.78;;;18.70;99.90;;;;;;5091108;28;20036;-70
2023/09/21 00:11:07;;;;;;;7.63;6.60;;;18.80;99.90;;;;;;5091571;28;20433;-70
2023/09/21 00:13:33;;;;;;;8.02;7.07;;;18.90;99.90;;;;;;5091060;28;20032;-71
2023/09/21 00:16:00;;;;;;;8.60;7.20;;;19.00;99.90;;;;;;5090897;28;20055;-71
2023/09/21 00:18:26;;;;;;;7.88;6.93;;;19.20;99.90;;;;;;5090659;28;20035;-70
2023/09/21 00:20:52;;;;;;;9.98;7.38;;;19.30;99.90;;;;;;5091536;28;20040;-70
2023/09/21 00:23:23;;;;;;;7.75;6.95;;;19.30;99.90;;;;;;5095265;28;20103;-70
2023/09/21 00:26:01;;;;;;;9.05;7.40;;;19.30;99.90;;;;;;5095191;28;20490;-70
2023/09/21 00:28:28;;;;;;;7.90;6.63;;;19.40;99.90;;;;;;5094934;28;20136;-70
2023/09/21 00:30:58;;;;;;;8.77;6.97;;;19.40;99.90;;;;;;5094704;28;20198;-70
2023/09/21 00:33:33;;;;;;;10.73;8.05;;;19.40;99.90;;;;;;5095103;28;20035;-71
2023/09/21 00:35:59;;;;;;;8.50;7.38;;;19.30;99.90;;;;;;5094714;28;20133;-70
2023/09/21 00:38:26;;;;;;;9.77;7.22;;;19.30;99.90;;;;;;5094549;28;20100;-70
2023/09/21 00:41:00;;;;;;;10.15;7.45;;;19.30;99.90;;;;;;5094296;28;20032;-70
2023/09/21 00:43:27;;;;;;;7.90;7.20;;;19.30;99.90;;;;;;5094327;28;20027;-71
2023/09/21 00:45:54;;;;;;;9.00;7.65;;;19.40;99.90;;;;;;5094301;28;20056;-70
2023/09/21 00:48:26;;;;;;;9.07;7.57;;;19.30;99.90;;;;;;5094447;28;20042;-70
2023/09/21 00:50:54;;;;;;;12.23;7.13;;;19.10;99.90;;;;;;5094768;28;20031;-70
2023/09/21 00:53:21;;;;;;;8.13;7.32;;;19.10;99.90;;;;;;5094336;28;20031;-70
2023/09/21 00:55:53;;;;;;;9.77;7.78;;;18.90;99.90;;;;;;5094272;28;20067;-71
2023/09/21 00:58:22;;;;;;;8.65;7.60;;;18.90;99.90;;;;;;5094256;28;20024;-70
2023/09/21 01:00:50;;;;;;;8.35;7.50;;;18.80;99.90;;;;;;5094157;28;20067;-69
2023/09/21 01:03:17;;;;;;;9.30;7.18;;;18.70;99.90;;;;;;5094264;28;20395;-71
2023/09/21 01:05:45;;;;;;;8.98;7.05;;;18.70;99.90;;;;;;5094317;28;20076;-71
2023/09/21 01:08:18;;;;;;;8.77;7.15;;;18.70;99.90;;;;;;5094267;28;20048;-70
2023/09/21 01:10:50;;;;;;;8.20;6.60;;;18.70;99.90;;;;;;5094247;28;20032;-70
2023/09/21 01:13:17;;;;;;;8.93;6.75;;;18.70;99.90;;;;;;5092413;28;20052;-71
2023/09/21 01:16:04;;;;;;;9.82;7.32;;;18.70;99.90;;;;;;5093755;28;20028;-71
2023/09/21 01:18:31;;;;;;;10.90;7.68;;;18.70;99.90;;;;;;5093568;28;20024;-71
2023/09/21 01:21:04;;;;;;;9.45;7.43;;;18.60;99.90;;;;;;5094401;28;20089;-71
2023/09/21 01:23:49;;;;;;;9.63;7.78;;;18.60;99.90;;;;;;5093834;28;20051;-71
2023/09/21 01:26:16;;;;;;;9.45;8.07;;;18.60;99.90;;;;;;5093825;28;20036;-71
2023/09/21 01:28:45;;;;;;;9.30;8.38;;;18.60;99.90;;;;;;5093694;28;20024;-71
2023/09/21 01:31:13;;;;;;;9.38;8.15;;;18.50;99.90;;;;;;5093148;28;20036;-70
2023/09/21 01:33:39;;;;;;;9.75;8.75;;;18.50;99.90;;;;;;5092965;28;20092;-70
2023/09/21 01:36:09;;;;;;;10.65;9.27;;;18.50;99.90;;;;;;5093591;28;20032;-70
2023/09/21 01:38:36;;;;;;;10.18;8.73;;;18.50;99.90;;;;;;5093594;28;20133;-71
2023/09/21 01:41:02;;;;;;;10.88;8.75;;;18.50;99.90;;;;;;5093701;28;20039;-71
2023/09/21 01:43:28;;;;;;;11.55;8.30;;;18.40;99.90;;;;;;5092978;28;20024;-71
2023/09/21 01:45:54;;;;;;;8.85;7.68;;;18.40;99.90;;;;;;5092016;28;20043;-70
2023/09/21 01:48:20;;;;;;;10.07;7.53;;;18.50;99.90;;;;;;5093666;28;20258;-70
2023/09/21 01:50:48;;;;;;;8.70;7.00;;;18.70;99.90;;;;;;5093034;28;20032;-70
2023/09/21 01:53:18;;;;;;;8.68;6.72;;;18.80;99.90;;;;;;5093016;28;20032;-70
2023/09/21 01:55:47;;;;;;;8.38;6.10;;;18.90;99.90;;;;;;5093517;28;20043;-70
2023/09/21 01:58:17;;;;;;;8.35;6.53;;;19.00;99.90;;;;;;5092830;28;20016;-70
2023/09/21 02:00:46;;;;;;;9.38;5.88;;;19.10;99.90;;;;;;5093104;28;20567;-70
2023/09/21 02:03:13;;;;;;;7.60;5.75;;;19.00;99.90;;;;;;5092807;28;20028;-70
2023/09/21 02:05:40;;;;;;;6.82;5.68;;;19.00;99.90;;;;;;5092997;28;20024;-70
2023/09/21 02:08:07;;;;;;;7.90;6.07;;;19.10;99.90;;;;;;5092593;28;20048;-70
2023/09/21 02:10:35;;;;;;;9.48;5.88;;;19.00;99.90;;;;;;5091426;28;20464;-70
2023/09/21 02:13:03;;;;;;;7.07;5.50;;;18.80;99.90;;;;;;5092926;28;20107;-70
2023/09/21 02:15:29;;;;;;;6.35;5.60;;;19.00;99.90;;;;;;5092618;28;20020;-71
2023/09/21 02:17:56;;;;;;;7.22;5.28;;;19.00;99.90;;;;;;5093062;28;20047;-70
2023/09/21 02:20:28;;;;;;;8.18;5.60;;;18.90;99.90;;;;;;5092813;28;20081;-70
2023/09/21 02:22:58;;;;;;;7.35;5.40;;;18.90;99.90;;;;;;5092649;28;20074;-70
2023/09/21 02:25:25;;;;;;;6.88;5.50;;;18.80;99.90;;;;;;5092783;28;20020;-71
2023/09/21 02:27:51;;;;;;;7.95;5.75;;;18.60;99.90;;;;;;5092201;28;20051;-71
2023/09/21 02:30:20;;;;;;;6.78;5.38;;;18.50;99.90;;;;;;5092471;28;20030;-71
2023/09/21 02:32:55;;;;;;;7.97;5.90;;;18.40;99.90;;;;;;5092293;28;20593;-70
2023/09/21 02:35:26;;;;;;;7.93;6.38;;;18.30;99.90;;;;;;5092581;28;20048;-70
2023/09/21 02:37:52;;;;;;;7.50;5.80;;;18.20;99.90;;;;;;5092292;28;20036;-70
2023/09/21 02:40:19;;;;;;;7.35;5.70;;;18.10;99.90;;;;;;5092488;28;20036;-71
2023/09/21 02:42:52;;;;;;;7.25;5.72;;;18.10;99.90;;;;;;5091941;28;20039;-70
2023/09/21 02:45:29;;;;;;;6.70;5.70;;;18.10;99.90;;;;;;5091962;28;20028;-70
2023/09/21 02:48:02;;;;;;;7.60;6.30;;;18.10;99.90;;;;;;5092337;28;20046;-71
2023/09/21 02:50:30;;;;;;;6.97;6.25;;;18.10;99.90;;;;;;5091933;28;20037;-70
2023/09/21 02:53:06;;;;;;;7.80;6.10;;;18.10;99.90;;;;;;5092043;28;20024;-70
2023/09/21 02:55:34;;;;;;;6.55;6.03;;;18.10;99.90;;;;;;5091781;28;20102;-70
2023/09/21 02:58:10;;;;;;;7.55;6.30;;;18.00;99.90;;;;;;5091734;28;20364;-70
2023/09/21 03:00:44;;;;;;;7.50;5.93;;;18.00;99.90;;;;;;5090202;28;20123;-70
2023/09/21 03:03:13;;;;;;;8.80;6.47;;;18.00;99.90;;;;;;5091552;28;20035;-70
2023/09/21 03:05:40;;;;;;;8.88;6.10;;;17.90;99.90;;;;;;5092319;28;20448;-70
2023/09/21 03:08:13;;;;;;;7.72;6.00;;;17.90;99.90;;;;;;5091529;28;20059;-70
2023/09/21 03:10:50;;;;;;;8.20;6.07;;;17.90;99.90;;;;;;5090148;28;20120;-70
2023/09/21 03:13:18;;;;;;;7.13;6.10;;;17.90;99.90;;;;;;5091611;28;20024;-71
2023/09/21 03:15:45;;;;;;;8.30;5.75;;;18.00;99.90;;;;;;5092451;28;20107;-71
2023/09/21 03:18:11;;;;;;;6.55;5.95;;;17.90;99.90;;;;;;5092009;28;20020;-69
2023/09/21 03:20:37;;;;;;;7.20;6.28;;;17.90;99.90;;;;;;5091388;28;20100;-70
2023/09/21 03:23:09;;;;;;;12.15;6.30;;;18.00;99.90;;;;;;5091586;28;20095;-70
2023/09/21 03:25:47;;;;;;;7.80;6.00;;;18.20;99.90;;;;;;5091381;28;20028;-70
2023/09/21 03:28:15;;;;;;;6.68;5.88;;;18.50;99.90;;;;;;5091685;28;20035;-70
2023/09/21 03:30:42;;;;;;;9.20;5.85;;;18.50;99.90;;;;;;5091877;28;20012;-70
2023/09/21 03:33:09;;;;;;;7.32;5.63;;;18.50;99.90;;;;;;5091507;28;20020;-70
2023/09/21 03:35:35;;;;;;;7.95;5.45;;;18.60;99.90;;;;;;5091921;28;20080;-70
2023/09/21 03:38:01;;;;;;;7.07;5.47;;;18.60;99.90;;;;;;5091270;28;20106;-70
2023/09/21 03:40:30;;;;;;;7.80;5.55;;;18.70;99.90;;;;;;5090942;28;20397;-71
2023/09/21 03:42:56;;;;;;;6.68;5.18;;;18.80;99.90;;;;;;5091488;28;20398;-70
2023/09/21 03:45:25;;;;;;;7.05;5.35;;;18.80;99.90;;;;;;5091203;28;20024;-70
2023/09/21 03:47:54;;;;;;;11.70;5.50;;;18.70;99.90;;;;;;5091490;28;20028;-70
2023/09/21 03:50:22;;;;;;;7.78;5.55;;;18.80;99.90;;;;;;5091222;28;20499;-70
2023/09/21 03:52:48;;;;;;;6.88;5.32;;;18.80;99.90;;;;;;5091473;28;20030;-70
2023/09/21 03:55:17;;;;;;;7.50;5.45;;;18.80;99.90;;;;;;5090875;28;20118;-70
2023/09/21 03:57:46;;;;;;;7.82;5.70;;;18.80;99.90;;;;;;5094877;28;20020;-70
2023/09/21 04:00:36;;;;;;;8.73;5.80;;;18.70;99.90;;;;;;5095064;28;20036;-70
2023/09/21 04:03:03;;;;;;;8.90;5.47;;;18.60;99.90;;;;;;5095233;28;20040;-70
2023/09/21 04:05:37;;;;;;;6.72;5.70;;;18.50;99.90;;;;;;5095165;28;20031;-70
2023/09/21 04:08:04;;;;;;;9.25;5.60;;;18.50;99.90;;;;;;5095383;28;20805;-71
2023/09/21 04:10:30;;;;;;;6.88;5.70;;;18.40;99.90;;;;;;5094748;28;20085;-70
2023/09/21 04:12:56;;;;;;;7.53;5.70;;;18.40;99.90;;;;;;5095065;28;20030;-69
2023/09/21 04:15:22;;;;;;;5.85;5.25;;;18.30;99.90;;;;;;5095056;28;20047;-70
2023/09/21 04:17:49;;;;;;;10.32;5.97;;;18.20;99.90;;;;;;5095287;28;20064;-70
2023/09/21 04:20:16;;;;;;;7.47;5.93;;;18.20;99.90;;;;;;5094719;28;20040;-70
2023/09/21 04:22:43;;;;;;;8.80;5.80;;;18.30;99.90;;;;;;5094723;28;20054;-71
2023/09/21 04:25:10;;;;;;;7.85;5.43;;;18.20;99.90;;;;;;5094570;28;20028;-70
2023/09/21 04:27:42;;;;;;;6.55;5.70;;;18.20;99.90;;;;;;5095308;28;20024;-70
2023/09/21 04:30:09;;;;;;;6.65;5.45;;;18.20;99.90;;;;;;5094792;28;20498;-70
2023/09/21 04:32:36;;;;;;;6.35;5.45;;;18.20;99.90;;;;;;5094822;28;20034;-70
2023/09/21 04:35:06;;;;;;;7.97;5.45;;;18.20;99.90;;;;;;5094616;28;20055;-70
2023/09/21 04:37:35;;;;;;;7.78;5.38;;;18.10;99.90;;;;;;5094829;28;20028;-70
2023/09/21 04:40:11;;;;;;;10.40;5.70;;;18.20;99.90;;;;;;5094558;28;20052;-70
2023/09/21 04:42:41;;;;;;;10.38;5.72;;;18.10;99.90;;;;;;5094407;28;20506;-70
2023/09/21 04:45:09;;;;;;;9.38;5.38;;;18.10;99.90;;;;;;5094481;28;20102;-70
2023/09/21 04:47:39;;;;;;;9.00;6.05;;;18.10;99.90;;;;;;5094349;28;20034;-70
2023/09/21 04:50:06;;;;;;;8.23;5.80;;;18.00;99.90;;;;;;5094127;28;20490;-70
2023/09/21 04:52:34;;;;;;;6.43;5.55;;;18.10;99.90;;;;;;5093978;28;20562;-70
2023/09/21 04:55:04;;;;;;;8.45;5.40;;;18.10;99.90;;;;;;5094255;28;20126;-70
2023/09/21 04:57:31;;;;;;;7.63;5.30;;;18.10;99.90;;;;;;5094589;28;20126;-69
2023/09/21 05:00:00;;;;;;;9.88;6.03;;;18.30;99.90;;;;;;5093837;28;20558;-69
2023/09/21 05:02:26;;;;;;;7.82;4.97;;;18.50;99.90;;;;;;5093996;28;20402;-69
2023/09/21 05:04:52;;;;;;;10.55;5.25;;;18.60;99.90;;;;;;5094164;28;20028;-69
2023/09/21 05:07:19;;;;;;;7.13;5.30;;;18.60;99.90;;;;;;5093339;28;20534;-69
2023/09/21 05:09:45;;;;;;;10.15;5.22;;;18.70;99.90;;;;;;5094211;28;20050;-69
2023/09/21 05:12:16;;;;;;;8.50;4.75;;;18.70;99.90;;;;;;5094320;28;20054;-70
2023/09/21 05:14:42;;;;;;;7.97;4.97;;;18.70;99.90;;;;;;5094133;28;20028;-69
2023/09/21 05:17:07;;;;;;;9.82;5.30;;;18.80;99.90;;;;;;5093672;28;20401;-70
2023/09/21 05:19:33;;;;;;;6.95;4.90;;;18.70;99.90;;;;;;5093950;28;20036;-69
2023/09/21 05:22:00;;;;;;;10.55;4.90;;;18.80;99.90;;;;;;5093759;28;20504;-70
2023/09/21 05:24:26;;;;;;;10.38;5.05;;;18.80;99.90;;;;;;5093540;28;20020;-69
2023/09/21 05:26:52;;;;;;;6.60;4.75;;;18.80;99.90;;;;;;5093944;28;20397;-70
2023/09/21 05:29:22;;;;;;;7.25;4.70;;;18.90;99.90;;;;;;5093486;28;20646;-68
2023/09/21 05:31:49;;;;;;;8.65;4.85;;;18.90;99.90;;;;;;5093624;28;20030;-68
2023/09/21 05:34:15;;;;;;;8.38;5.07;;;19.00;99.90;;;;;;5093313;28;20081;-68
2023/09/21 05:36:44;;;;;;;8.55;4.85;;;18.90;99.90;;;;;;5093367;28;20024;-67
2023/09/21 05:39:09;;;;;;;16.25;5.70;;;18.80;99.90;;;;;;5092617;28;20016;-68
2023/09/21 05:41:35;;;;;;;9.75;5.15;;;18.70;99.90;;;;;;5092633;28;20024;-69
2023/09/21 05:44:01;;;;;;;10.40;4.90;;;18.60;99.90;;;;;;5092694;28;20024;-68
2023/09/21 05:46:27;;;;;;;8.07;5.13;;;18.50;99.90;;;;;;5092988;28;20123;-67
2023/09/21 05:48:53;;;;;;;10.95;5.07;;;18.50;99.90;;;;;;5092518;28;20024;-68
2023/09/21 05:51:19;;;;;;;10.23;4.88;;;18.50;99.90;;;;;;5091879;28;20024;-68
2023/09/21 05:53:45;;;;;;;12.88;5.38;;;18.40;99.90;;;;;;5092528;28;20023;-67
2023/09/21 05:56:11;;;;;;;9.48;5.07;;;18.40;99.90;;;;;;5092462;28;20035;-67
2023/09/21 05:58:37;;;;;;;8.82;5.07;;;18.50;99.90;;;;;;5091957;28;20032;-68
2023/09/21 06:01:03;;;;;;;8.30;5.07;;;18.50;99.90;;;;;;5091809;28;20130;-67
2023/09/21 06:03:29;;;;;;;8.55;4.53;;;18.70;99.90;;;;;;5091950;28;20623;-68
2023/09/21 06:05:55;;;;;;;10.00;4.47;;;18.90;99.90;;;;;;5091885;28;20028;-68
2023/09/21 06:08:21;;;;;;;9.07;4.18;;;19.00;99.90;;;;;;5092108;28;20036;-68
2023/09/21 06:10:47;;;;;;;10.43;3.70;;;19.20;99.90;;;;;;5092004;28;20521;-68
2023/09/21 06:13:13;;;;;;;8.75;3.92;;;19.30;99.90;;;;;;5092292;28;20021;-68
2023/09/21 06:15:48;;;;;;;9.50;4.20;;;19.40;99.90;;;;;;5091887;28;20024;-68
2023/09/21 06:18:14;;;;;;;11.23;3.70;;;19.40;99.90;;;;;;5091843;28;20028;-67
2023/09/21 06:20:43;;;;;;;7.00;3.72;;;19.40;99.90;;;;;;5090974;28;20103;-68
2023/09/21 06:23:09;;;;;;;9.30;4.25;;;19.30;99.90;;;;;;5091695;28;20387;-68
2023/09/21 06:25:35;;;;;;;53.67;9.00;;;19.30;99.90;;;;;;5091903;28;20048;-66
2023/09/21 06:28:01;;;;;;;21.23;8.05;;;19.40;99.90;;;;;;5090551;28;20528;-67
2023/09/21 06:30:27;;;;;;;10.07;4.43;;;19.40;99.90;;;;;;5091659;28;20028;-68
2023/09/21 06:32:55;;;;;;;10.82;4.40;;;19.40;99.90;;;;;;5091740;28;20508;-67
2023/09/21 06:35:24;;;;;;;13.25;5.88;;;19.50;99.90;;;;;;5091319;28;20413;-67
2023/09/21 06:37:56;;;;;;;9.23;4.50;;;19.70;99.90;;;;;;5091890;28;20197;-67
2023/09/21 06:40:25;;;;;;;10.88;3.83;;;19.80;99.90;;;;;;5091308;28;20044;-68
2023/09/21 06:42:51;;;;;;;10.63;3.85;;;19.80;99.90;;;;;;5088902;28;20032;-69
2023/09/21 06:45:18;;;;;;;7.95;3.35;;;19.80;99.90;;;;;;5091624;28;20028;-69
2023/09/21 06:47:47;;;;;;;11.27;3.40;;;19.80;99.90;;;;;;5091437;28;20095;-69
2023/09/21 06:50:14;;;;;;;10.93;3.60;;;19.90;99.90;;;;;;5088422;28;20023;-69
2023/09/21 06:52:40;;;;;;;8.30;3.22;;;19.90;99.90;;;;;;5091614;28;20016;-68
2023/09/21 06:55:07;;;;;;;8.98;3.95;;;19.90;99.90;;;;;;5091384;28;20028;-66
2023/09/21 06:57:34;;;;;;;9.93;3.65;;;19.90;99.90;;;;;;5089036;28;20047;-70
2023/09/21 07:00:01;;;;;;;14.13;3.65;;;19.90;99.90;;;;;;5091644;28;20024;-70
2023/09/21 07:02:27;;;;;;;10.85;3.63;;;19.90;99.90;;;;;;5090981;28;20063;-70
2023/09/21 07:04:53;;;;;;;11.38;3.25;;;19.90;99.90;;;;;;5091602;28;20062;-70
2023/09/21 07:07:20;;;;;;;8.65;3.15;;;19.80;99.90;;;;;;5091330;28;20048;-66
2023/09/21 07:09:47;;;;;;;10.27;3.22;;;19.90;99.90;;;;;;5092141;28;20032;-70
2023/09/21 07:12:12;;;;;;;12.35;3.40;;;19.80;99.90;;;;;;5091631;28;20470;-70
2023/09/21 07:14:38;;;;;;;8.15;3.35;;;19.70;99.90;;;;;;5091548;28;20034;-69
2023/09/21 07:17:05;;;;;;;12.95;3.75;;;19.60;99.90;;;;;;5091639;28;20118;-69
2023/09/21 07:19:31;;;;;;;10.73;4.03;;;19.60;99.90;;;;;;5091522;28;20064;-69
2023/09/21 07:21:57;;;;;;;13.73;4.10;;;19.60;99.90;;;;;;5091423;28;20044;-69
2023/09/21 07:24:23;;;;;;;10.77;3.80;;;19.60;99.90;;;;;;5091534;28;20051;-71
2023/09/21 07:26:49;;;;;;;8.60;3.67;;;19.50;99.90;;;;;;5091976;28;20486;-71
2023/09/21 07:29:17;;;;;;;10.52;3.85;;;19.60;99.90;;;;;;5091230;28;20020;-71
2023/09/21 07:31:43;;;;;;;10.30;3.85;;;19.60;99.90;;;;;;5090099;28;20032;-71
2023/09/21 07:34:09;;;;;;;8.68;3.75;;;19.60;99.90;;;;;;5091490;28;20084;-71
2023/09/21 07:36:38;;;;;;;10.18;3.90;;;19.60;99.90;;;;;;5091746;28;20032;-71
2023/09/21 07:39:09;;;;;;;11.02;3.88;;;19.60;99.90;;;;;;5091240;28;20056;-71
2023/09/21 07:41:35;;;;;;;8.60;3.40;;;19.60;99.90;;;;;;5091300;28;20028;-71
2023/09/21 07:44:03;;;;;;;11.35;3.85;;;19.70;99.90;;;;;;5091115;28;20073;-70
2023/09/21 07:46:29;;;;;;;10.68;4.03;;;19.70;99.90;;;;;;5091014;28;20042;-71
2023/09/21 07:48:55;;;;;;;10.00;4.05;;;19.80;99.90;;;;;;5091186;28;20490;-71
2023/09/21 07:51:21;;;;;;;13.18;4.22;;;19.80;99.90;;;;;;5091531;28;20032;-71
2023/09/21 07:53:47;;;;;;;12.30;4.50;;;19.80;99.90;;;;;;5091223;28;20024;-71
2023/09/21 07:56:13;;;;;;;12.90;4.47;;;19.90;99.90;;;;;;5091300;28;20032;-70
2023/09/21 07:58:39;;;;;;;14.80;4.28;;;19.90;99.90;;;;;;5089157;28;20248;-71
2023/09/21 08:01:05;;;;;;;9.63;3.40;;;19.80;99.90;;;;;;5089998;28;20123;-68
2023/09/21 08:03:31;;;;;;;10.95;4.10;;;19.90;99.90;;;;;;5090093;28;20419;-68
2023/09/21 08:05:57;;;;;;;12.10;4.32;;;19.90;99.90;;;;;;5090339;28;20032;-65
2023/09/21 08:08:26;;;;;;;6.93;3.30;;;19.90;99.90;;;;;;5090280;28;20402;-65
2023/09/21 08:10:53;;;;;;;9.82;3.80;;;19.90;99.90;;;;;;5090334;28;20051;-66
2023/09/21 08:13:25;;;;;;;14.00;4.90;;;19.90;99.90;;;;;;5090454;28;20023;-65
2023/09/21 08:15:52;;;;;;;15.60;4.30;;;19.90;99.90;;;;;;5090048;28;20024;-68
2023/09/21 08:18:18;;;;;;;13.93;3.85;;;19.90;99.90;;;;;;5090078;28;20121;-66
2023/09/21 08:20:44;;;;;;;13.88;3.90;;;19.60;99.90;;;;;;5090140;28;20039;-66
2023/09/21 08:23:10;;;;;;;13.13;4.60;;;19.60;99.90;;;;;;5089939;28;20494;-66
2023/09/21 08:25:37;;;;;;;17.65;5.07;;;19.70;99.90;;;;;;5089809;28;20113;-68
2023/09/21 08:28:04;;;;;;;20.30;5.30;;;19.70;99.90;;;;;;5089754;28;20079;-68
2023/09/21 08:30:33;;;;;;;12.30;3.88;;;19.60;99.90;;;;;;5086983;28;20020;-67
2023/09/21 08:32:59;;;;;;;11.13;3.10;;;19.50;99.90;;;;;;5090352;28;20506;-68
2023/09/21 08:35:25;;;;;;;12.07;3.15;;;19.50;99.90;;;;;;5090307;28;20020;-69
2023/09/21 08:37:52;;;;;;;11.20;3.10;;;19.30;99.90;;;;;;5089745;28;20314;-68
2023/09/21 08:40:21;;;;;;;10.95;2.95;;;19.30;99.90;;;;;;5090155;28;20024;-65
2023/09/21 08:42:55;;;;;;;8.63;3.00;;;19.40;99.90;;;;;;5091891;28;20179;-63
2023/09/21 08:45:22;;;;;;;15.07;3.35;;;19.20;99.90;;;;;;5093670;28;20013;-67
2023/09/21 08:47:49;;;;;;;12.13;3.65;;;18.90;99.90;;;;;;5093207;28;20111;-70
2023/09/21 08:50:15;;;;;;;14.25;3.40;;;18.80;99.90;;;;;;5093714;28;20028;-64
2023/09/21 08:52:45;;;;;;;12.75;4.47;;;18.70;99.90;;;;;;5093927;28;20016;-66
2023/09/21 08:55:16;;;;;;;11.55;4.00;;;18.50;99.90;;;;;;5090913;28;20424;-66
2023/09/21 08:57:42;;;;;;;14.30;3.47;;;18.50;99.90;;;;;;5093334;28;20027;-61
2023/09/21 09:00:08;;;;;;;12.98;3.65;;;18.50;99.90;;;;;;5092789;28;20528;-61
2023/09/21 09:02:35;;;;;;;16.10;3.65;;;18.50;99.90;;;;;;5093735;28;20040;-66
2023/09/21 09:05:09;;;;;;;13.85;3.42;;;18.50;99.90;;;;;;5093068;28;20438;-68
2023/09/21 09:07:39;;;;;;;15.52;3.50;;;18.50;99.90;;;;;;5091095;28;20052;-68
2023/09/21 09:10:10;;;;;;;12.93;2.92;;;18.50;99.90;;;;;;5092924;28;20028;-68
2023/09/21 09:12:37;;;;;;;12.05;2.97;;;18.60;99.90;;;;;;5093406;28;20028;-67
2023/09/21 09:15:05;;;;;;;18.95;3.53;;;18.70;99.90;;;;;;5092874;28;20024;-68
2023/09/21 09:17:31;;;;;;;15.10;2.95;;;18.70;99.90;;;;;;5090329;28;20017;-69
2023/09/21 09:19:58;;;;;;;12.70;2.30;;;18.80;99.90;;;;;;5092817;28;20030;-68
2023/09/21 09:22:24;;;;;;;12.00;2.30;;;18.80;99.90;;;;;;5092998;28;20035;-69
2023/09/21 09:24:50;;;;;;;11.50;1.90;;;18.70;99.90;;;;;;5092544;28;20020;-67
2023/09/21 09:27:17;;;;;;;7.57;2.00;;;18.60;99.90;;;;;;5091263;28;20028;-68
2023/09/21 09:29:52;;;;;;;10.45;2.10;;;18.60;99.90;;;;;;5090592;28;20031;-68
2023/09/21 09:32:18;;;;;;;6.65;1.40;;;18.60;99.90;;;;;;5092228;28;20442;-69
2023/09/21 09:34:46;;;;;;;6.70;1.70;;;18.50;99.90;;;;;;5092804;28;20028;-68
2023/09/21 09:37:15;;;;;;;9.52;1.73;;;18.50;99.90;;;;;;5093110;28;20035;-68
2023/09/21 09:39:44;;;;;;;11.80;2.17;;;18.40;99.90;;;;;;5090773;28;20024;-65
2023/09/21 09:42:11;;;;;;;8.60;2.00;;;18.30;99.90;;;;;;5092909;28;20051;-66
2023/09/21 09:44:43;;;;;;;10.55;2.25;;;18.30;99.90;;;;;;5092939;28;20177;-66
2023/09/21 09:47:12;;;;;;;7.95;2.00;;;18.70;99.90;;;;;;5092448;28;20032;-67
2023/09/21 09:49:40;;;;;;;8.43;2.00;;;18.70;99.90;;;;;;5091663;28;20081;-67
2023/09/21 09:52:09;;;;;;;7.50;1.92;;;18.80;99.90;;;;;;5092714;28;20032;-67
2023/09/21 09:54:36;;;;;;;7.70;1.98;;;18.70;99.90;;;;;;5092305;28;20024;-67
2023/09/21 09:57:04;;;;;;;6.82;1.80;;;18.90;99.90;;;;;;5092618;28;20028;-67
2023/09/21 09:59:31;;;;;;;8.75;2.22;;;18.90;99.90;;;;;;5092068;28;20028;-67
2023/09/21 10:01:59;;;;;;;7.35;1.75;;;19.10;99.90;;;;;;5092179;28;20085;-66
2023/09/21 10:04:26;;;;;;;9.43;2.13;;;18.90;99.90;;;;;;5092495;28;20048;-65
2023/09/21 10:06:52;;;;;;;8.55;2.25;;;18.90;99.90;;;;;;5092760;28;20581;-65
2023/09/21 10:09:20;;;;;;;7.82;2.20;;;18.90;99.90;;;;;;5092430;28;20134;-66
2023/09/21 10:11:50;;;;;;;8.45;2.33;;;18.90;99.90;;;;;;5092528;28;20025;-66
2023/09/21 10:14:17;;;;;;;8.50;2.55;;;18.90;99.90;;;;;;5092570;28;20027;-66
2023/09/21 10:16:53;;;;;;;11.27;2.70;;;18.90;99.90;;;;;;5092018;28;20044;-66
2023/09/21 10:19:29;;;;;;;8.05;2.30;;;18.80;99.90;;;;;;5092065;28;20482;-67
2023/09/21 10:21:59;;;;;;;9.38;2.47;;;18.60;99.90;;;;;;5092281;28;20089;-66
2023/09/21 10:24:29;;;;;;;11.43;2.78;;;18.50;99.90;;;;;;5092253;28;20645;-66
2023/09/21 10:26:58;;;;;;;7.60;2.33;;;18.40;99.90;;;;;;5092009;28;20107;-66
2023/09/21 10:29:32;;;;;;;7.75;2.30;;;18.30;99.90;;;;;;5092290;28;20526;-66
2023/09/21 10:32:03;;;;;;;9.10;2.53;;;18.20;99.90;;;;;;5092293;28;20026;-67
2023/09/21 10:34:31;;;;;;;9.88;2.80;;;18.30;99.90;;;;;;5092358;28;20513;-66
2023/09/21 10:37:10;;;;;;;9.35;2.40;;;18.20;99.90;;;;;;5092338;28;20039;-66
2023/09/21 10:39:42;;;;;;;8.25;2.65;;;18.20;99.90;;;;;;5091812;28;20035;-66
2023/09/21 10:42:08;;;;;;;10.55;2.83;;;18.10;99.90;;;;;;5092124;28;20047;-66
2023/09/21 10:45:03;;;;;;;8.98;2.80;;;18.10;99.90;;;;;;5092123;28;20375;-66
2023/09/21 10:47:44;;;;;;;10.48;2.85;;;18.10;99.90;;;;;;5092116;28;20028;-67
2023/09/21 10:50:15;;;;;;;8.02;2.58;;;18.10;99.90;;;;;;5091993;28;20053;-66
2023/09/21 10:52:46;;;;;;;10.90;3.22;;;18.20;99.90;;;;;;5091781;28;20035;-67
2023/09/21 10:55:14;;;;;;;10.88;2.90;;;18.20;99.90;;;;;;5091598;28;20043;-66
2023/09/21 10:57:41;;;;;;;10.20;3.00;;;18.20;99.90;;;;;;5091834;28;20107;-66
2023/09/21 11:00:08;;;;;;;11.00;3.10;;;18.20;99.90;;;;;;5091823;28;20050;-66
2023/09/21 11:02:39;;;;;;;9.70;2.50;;;18.20;99.90;;;;;;5091574;28;20039;-66
2023/09/21 11:05:07;;;;;;;11.32;3.00;;;18.20;99.90;;;;;;5091537;28;20035;-66
2023/09/21 11:07:34;;;;;;;7.97;2.67;;;18.20;99.90;;;;;;5091497;28;20422;-65
2023/09/21 11:10:00;;;;;;;8.50;2.47;;;18.30;99.90;;;;;;5091738;28;20020;-66
2023/09/21 11:12:26;;;;;;;10.77;3.15;;;18.40;99.90;;;;;;5091773;28;20028;-66
2023/09/21 11:14:51;;;;;;;9.50;3.15;;;18.40;99.90;;;;;;5091683;28;20032;-66
2023/09/21 11:17:18;;;;;;;10.40;2.85;;;18.30;99.90;;;;;;5091530;28;20035;-66
2023/09/21 11:19:46;;;;;;;10.43;2.83;;;18.50;99.90;;;;;;5091814;28;20486;-67
2023/09/21 11:22:15;;;;;;;8.75;2.80;;;18.70;99.90;;;;;;5091418;28;20648;-66
2023/09/21 11:24:42;;;;;;;9.73;2.88;;;18.80;99.90;;;;;;5091145;28;20516;-66
2023/09/21 11:27:12;;;;;;;9.15;3.00;;;19.10;99.90;;;;;;5091636;28;20497;-66
2023/09/21 11:29:43;;;;;;;6.97;2.83;;;19.10;99.90;;;;;;5091131;28;20397;-66
2023/09/21 11:32:12;;;;;;;10.88;3.17;;;19.00;99.90;;;;;;5091055;28;20028;-66
2023/09/21 11:34:40;;;;;;;11.60;4.00;;;18.90;99.90;;;;;;5091372;28;20035;-67
2023/09/21 11:37:08;;;;;;;9.70;3.40;;;19.00;99.90;;;;;;5091275;28;20424;-66
2023/09/21 11:39:36;;;;;;;10.65;3.40;;;18.90;99.90;;;;;;5090828;28;20111;-66
2023/09/21 11:42:03;;;;;;;7.72;2.60;;;19.00;99.90;;;;;;5091126;28;20040;-65
2023/09/21 11:44:29;;;;;;;7.55;2.72;;;19.10;99.90;;;;;;5091449;28;20565;-66
2023/09/21 11:47:01;;;;;;;7.82;2.60;;;19.00;99.90;;;;;;5091367;28;20402;-65
2023/09/21 11:49:37;;;;;;;8.07;2.67;;;19.10;99.90;;;;;;5091410;28;20043;-65
2023/09/21 11:52:03;;;;;;;7.65;2.42;;;19.10;99.90;;;;;;5091101;28;20028;-66
2023/09/21 11:54:38;;;;;;;6.30;2.70;;;19.30;99.90;;;;;;5090810;28;20088;-66
2023/09/21 11:57:04;;;;;;;7.28;2.67;;;19.50;99.90;;;;;;5091617;28;20027;-66
2023/09/21 11:59:41;;;;;;;9.23;3.22;;;19.50;99.90;;;;;;5090955;28;20089;-66
2023/09/21 12:02:13;;;;;;;11.68;3.20;;;19.50;99.90;;;;;;5090859;28;20075;-65
2023/09/21 12:04:41;;;;;;;10.98;2.95;;;19.50;99.90;;;;;;5091196;28;20572;-65
2023/09/21 12:07:10;;;;;;;11.52;3.30;;;19.50;99.90;;;;;;5090980;28;20469;-65
2023/09/21 12:09:42;;;;;;;12.63;3.30;;;19.50;99.90;;;;;;5090964;28;20051;-65
2023/09/21 12:12:09;;;;;;;14.43;3.20;;;19.60;99.90;;;;;;5090995;28;20055;-65
2023/09/21 12:14:36;;;;;;;15.98;3.83;;;19.60;99.90;;;;;;5090979;28;20432;-65
2023/09/21 12:17:09;;;;;;;12.05;3.10;;;19.70;99.90;;;;;;5091904;28;20020;-66
2023/09/21 12:19:41;;;;;;;12.77;3.22;;;19.70;99.90;;;;;;5095282;28;20410;-66
2023/09/21 12:22:08;;;;;;;14.43;3.58;;;19.70;99.90;;;;;;5094378;28;20044;-64
2023/09/21 12:24:34;;;;;;;12.35;3.10;;;19.70;99.90;;;;;;5094808;28;20028;-66
2023/09/21 12:27:03;;;;;;;15.07;3.22;;;19.70;99.90;;;;;;5094890;28;20107;-66
2023/09/21 12:29:29;;;;;;;14.98;3.78;;;19.50;99.90;;;;;;5095024;28;20031;-66
2023/09/21 12:31:56;;;;;;;12.68;3.22;;;19.30;99.90;;;;;;5094513;28;20115;-66
2023/09/21 12:34:22;;;;;;;13.35;3.10;;;19.20;99.90;;;;;;5094981;28;20032;-66
2023/09/21 12:36:49;;;;;;;11.38;3.13;;;19.10;99.90;;;;;;5094325;28;20479;-66
2023/09/21 12:39:15;;;;;;;11.95;3.03;;;19.00;99.90;;;;;;5094413;28;20501;-66
2023/09/21 12:41:43;;;;;;;11.00;2.70;;;18.90;99.90;;;;;;5094474;28;20071;-66
2023/09/21 12:44:10;;;;;;;7.00;2.20;;;18.90;99.90;;;;;;5094840;28;20092;-65
2023/09/21 12:46:37;;;;;;;8.45;2.30;;;19.00;99.90;;;;;;5094372;28;20405;-66
2023/09/21 12:49:06;;;;;;;6.15;2.17;;;18.90;99.90;;;;;;5094355;28;20024;-66